Aérodrome :
LOGIN :

S'inscrire | Disclaimer

   EN    FR    IT 

 










Légende :    VFR   VFR Marginal   IFR   IFR Intensif   IFR Très Intensif
Visi : 
Plafond : 
>= 8 km
>= 3000ft
5 à 8 km
1000 à 3000 ft
1500m à 5 km
500 à 1000 ft
800 à 1500m
200 à 500 ft
< 800m
< 200 ft
Symboles :   Orages  Brouillard  Fortes neiges  Fortes précipitations  Vent > 20 kt
SIGMETs :   Divers  Orages  Givrage  Turbulence  Onde Orograph.  Cendres Volcan.







- Altitude de l'aérodrome : 39 ft
- Code IATA : ANR


EBAW - Anvers / Antwerpen Deurne

DERNIER METAR :
  • 221750Z 31007KT CAVOK 21/13 Q1010 NOSIG

METARs EXPIRÉS :
  • 221720Z 31007KT 9999 FEW060TCU 22/13 Q1009 NOSIG
  • 221650Z 32008KT CAVOK 23/13 Q1009 NOSIG
  • 221620Z 31005KT 270V340 9999 FEW055TCU 23/12 Q1009 NOSIG
  • 221550Z 31011KT 9999 SCT055TCU 22/13 Q1009 NOSIG
  • 221520Z 28015KT 230V310 9999 SCT052TCU 22/13 Q1009 NOSIG

TAF TAF EBAW
Valide du 22 à 18h jusqu'au 23 à 03h UTC


221700Z 2218/2303 25008KT 9999 FEW048CB
PROB30
TEMPO 2218/2222 VRB15G25KT 4000 SHRA -TSRA
PROB40
TEMPO 2302/2303 BKN014
Pas de NOTAMs connus pour ce terrain.



MET'MAP, la Météo Aéronautique d'un coup d'oeil ! - Copyright ORBIFLY Décembre 2007 - Disclaimer

ORBIFLY MET'MAP TEAM :

Programmation & Développement : Alexandra Zaïnal
Conception & Développement : Baudouin d'Aumeries
Co-Programmation & Développement : Marc-Olivier Méhu
Soutien technique & logistique : Manuel Goepfert

Contact : metmap@orbifly.com




SOURCES & CREDITS :

   NOAA